Terminal Aerodrome Forecast
Issued by NWS

Home | Current Version | Previous Version | Text Only | Print | Product List | Glossary On
Versions: 1 2 3 4 5 6 7 8 9 10 11 12 13 14 15 16 17 18 19 20 21 22 23 24 25 26 27 28 29 30 31 32 33 34 35 36 37 38 39 40 41 42 43 44 45 46
000
FTUS45 KPSR 031722
TAFIWA
TAF
KIWA 031722Z 0318/0418 04005KT P6SM BKN100 OVC250
     FM032000 27009KT P6SM SCT120 BKN250
     FM040400 13006KT P6SM FEW120 SCT250
     FM040800 09012KT P6SM VCSH BKN080 OVC250
     FM041500 09007KT P6SM BKN100 OVC250=

USA.gov is the U.S. government's official web portal to all federal, state and local government web resources and services.